createdAt,value
2019-04-22T00:01:04.788Z,13.10
2019-04-22T00:03:38.641Z,13.10
2019-04-22T00:06:27.400Z,13.00
2019-04-22T00:08:56.160Z,13.00
2019-04-22T00:11:31.907Z,12.90
2019-04-22T00:13:57.103Z,12.80
2019-04-22T00:16:33.202Z,12.80
2019-04-22T00:21:33.317Z,12.70
2019-04-22T00:24:01.197Z,12.70
2019-04-22T00:26:33.556Z,12.70
2019-04-22T00:29:20.735Z,12.60
2019-04-22T00:31:40.671Z,12.70
2019-04-22T00:34:14.341Z,12.80
2019-04-22T00:36:44.888Z,12.80
2019-04-22T00:39:16.379Z,12.80
2019-04-22T00:41:43.823Z,12.80
2019-04-22T00:44:19.038Z,12.90
2019-04-22T00:46:46.447Z,12.80
2019-04-22T00:49:58.283Z,12.80
2019-04-22T00:52:07.724Z,12.80
2019-04-22T00:54:13.655Z,12.70
2019-04-22T00:56:44.056Z,12.70
2019-04-22T00:59:13.903Z,12.70
2019-04-22T01:01:46.721Z,12.70
2019-04-22T01:04:25.647Z,12.60
2019-04-22T01:06:49.871Z,12.60
2019-04-22T01:09:17.119Z,12.60
2019-04-22T01:11:44.619Z,12.60
2019-04-22T01:14:13.109Z,12.60
2019-04-22T01:16:48.580Z,12.60
2019-04-22T01:19:16.639Z,12.60
2019-04-22T01:21:45.067Z,12.50
2019-04-22T01:24:15.753Z,12.40
2019-04-22T01:26:43.471Z,12.40
2019-04-22T01:29:11.004Z,12.40
2019-04-22T01:31:31.467Z,12.40
2019-04-22T01:34:10.335Z,12.40
2019-04-22T01:36:48.379Z,12.40
2019-04-22T01:39:21.282Z,12.30
2019-04-22T01:44:29.569Z,12.20
2019-04-22T01:47:00.356Z,12.20
2019-04-22T01:49:27.620Z,12.20
2019-04-22T01:52:11.518Z,12.20
2019-04-22T01:54:35.158Z,12.20
2019-04-22T01:57:02.178Z,12.20
2019-04-22T01:59:20.101Z,12.30
2019-04-22T02:01:56.144Z,12.30
2019-04-22T02:04:33.561Z,12.30
2019-04-22T02:07:07.468Z,12.20
2019-04-22T02:09:38.410Z,12.20
2019-04-22T02:12:00.198Z,12.20
2019-04-22T02:14:34.122Z,12.20
2019-04-22T02:17:01.306Z,12.20
2019-04-22T02:19:36.117Z,12.20
2019-04-22T02:22:02.174Z,12.20
2019-04-22T02:24:33.308Z,12.20
2019-04-22T02:27:09.158Z,12.20
2019-04-22T02:29:37.312Z,12.30
2019-04-22T02:32:17.149Z,12.20
2019-04-22T02:34:40.026Z,12.30
2019-04-22T02:42:10.544Z,12.30
2019-04-22T02:44:37.403Z,12.30
2019-04-22T02:50:00.227Z,12.30
2019-04-22T02:52:11.627Z,12.30
2019-04-22T02:59:39.567Z,12.20
2019-04-22T03:02:14.271Z,12.20
2019-04-22T03:04:37.222Z,12.20
2019-04-22T03:07:05.504Z,12.30
2019-04-22T03:09:50.728Z,12.30
2019-04-22T03:12:27.114Z,12.30
2019-04-22T03:14:40.377Z,12.30
2019-04-22T03:17:16.249Z,12.30
2019-04-22T03:27:21.910Z,12.30
2019-04-22T03:37:48.812Z,12.20
2019-04-22T03:40:16.105Z,12.10
2019-04-22T03:42:45.775Z,12.00
2019-04-22T03:45:19.238Z,12.10
2019-04-22T03:50:24.352Z,12.10
2019-04-22T03:52:44.466Z,12.00
2019-04-22T03:55:09.273Z,12.00
2019-04-22T03:57:56.061Z,12.00
2019-04-22T04:05:29.109Z,12.10
2019-04-22T04:07:48.081Z,12.10
2019-04-22T04:10:22.638Z,12.00
2019-04-22T04:30:18.994Z,11.80
2019-04-22T04:35:23.495Z,11.70
2019-04-22T04:37:55.769Z,11.80
2019-04-22T04:40:20.664Z,11.80
2019-04-22T04:50:20.578Z,11.90
2019-04-22T04:53:01.481Z,11.90
2019-04-22T04:55:26.699Z,11.90
2019-04-22T05:05:16.683Z,12.00
2019-04-22T05:15:18.594Z,12.20
2019-04-22T05:17:55.056Z,12.20
2019-04-22T05:20:26.951Z,12.30
2019-04-22T05:22:44.512Z,12.30
2019-04-22T05:25:19.045Z,12.40
2019-04-22T05:33:01.470Z,12.40
2019-04-22T05:37:50.633Z,12.60
2019-04-22T05:40:22.075Z,12.70
2019-04-22T05:42:46.289Z,12.80
2019-04-22T05:45:17.317Z,13.20
2019-04-22T05:47:46.186Z,13.50
2019-04-22T05:52:51.340Z,14.70
2019-04-22T05:55:22.447Z,15.60
2019-04-22T05:57:51.006Z,16.50
2019-04-22T06:00:36.973Z,17.10
2019-04-22T06:02:56.617Z,18.40
2019-04-22T06:05:24.734Z,17.70
2019-04-22T06:07:53.816Z,19.00
2019-04-22T06:10:31.094Z,19.90
2019-04-22T06:12:56.483Z,19.70
2019-04-22T06:15:33.125Z,19.60
2019-04-22T06:18:12.385Z,19.60
2019-04-22T06:20:32.658Z,20.00
2019-04-22T06:23:04.524Z,20.40
2019-04-22T06:25:55.018Z,20.70
2019-04-22T06:28:06.471Z,21.20
2019-04-22T06:30:35.988Z,20.40
2019-04-22T06:33:13.301Z,18.90
2019-04-22T06:35:36.533Z,19.10
2019-04-22T06:38:30.507Z,19.40
2019-04-22T06:40:41.680Z,18.40
2019-04-22T06:45:34.795Z,17.40
2019-04-22T06:48:16.151Z,18.20
2019-04-22T06:53:09.913Z,19.40
2019-04-22T06:55:41.344Z,20.20
2019-04-22T06:58:13.465Z,20.60
2019-04-22T07:05:43.829Z,21.60
2019-04-22T07:08:30.485Z,21.20
2019-04-22T07:10:43.426Z,21.70
2019-04-22T07:13:11.637Z,21.50
2019-04-22T07:18:18.427Z,20.10
2019-04-22T07:20:44.229Z,20.90
2019-04-22T07:23:13.848Z,20.50
2019-04-22T07:25:40.800Z,20.20
2019-04-22T07:31:02.360Z,20.30
2019-04-22T07:38:20.572Z,19.50
2019-04-22T07:40:55.421Z,19.10
2019-04-22T07:43:22.675Z,19.00
2019-04-22T07:46:09.538Z,18.80
2019-04-22T07:48:27.929Z,18.80
2019-04-22T07:51:02.517Z,18.90
2019-04-22T07:53:10.048Z,18.90
2019-04-22T07:55:47.043Z,18.90
2019-04-22T07:58:18.479Z,19.00
2019-04-22T08:00:43.780Z,19.00
2019-04-22T08:03:22.672Z,19.10
2019-04-22T08:05:58.874Z,19.10
2019-04-22T08:08:26.425Z,19.30
2019-04-22T08:10:48.508Z,19.40
2019-04-22T08:13:17.061Z,19.60
2019-04-22T08:15:54.228Z,19.70
2019-04-22T08:18:22.092Z,19.60
2019-04-22T08:20:49.774Z,19.80
2019-04-22T08:23:23.874Z,20.00
2019-04-22T08:25:49.520Z,20.00
2019-04-22T08:28:26.239Z,20.10
2019-04-22T08:30:56.821Z,20.20
2019-04-22T08:36:06.453Z,20.20
2019-04-22T08:38:33.747Z,20.10
2019-04-22T08:41:21.505Z,20.20
2019-04-22T08:46:17.030Z,20.40
2019-04-22T08:48:44.264Z,20.60
2019-04-22T08:51:19.637Z,20.70
2019-04-22T08:53:49.939Z,20.90
2019-04-22T08:56:23.522Z,21.10
2019-04-22T08:58:50.764Z,21.20
2019-04-22T09:01:21.221Z,21.40
2019-04-22T09:03:47.142Z,21.50
2019-04-22T09:06:27.714Z,21.50
2019-04-22T09:08:50.455Z,21.60
2019-04-22T09:11:20.148Z,21.80
2019-04-22T09:13:50.720Z,21.80
2019-04-22T09:16:19.332Z,21.80
2019-04-22T09:18:49.354Z,21.80
2019-04-22T09:21:26.466Z,21.70
2019-04-22T09:23:54.006Z,21.60
2019-04-22T09:26:15.550Z,21.80
2019-04-22T09:28:54.499Z,21.90
2019-04-22T09:31:19.548Z,21.90
2019-04-22T09:33:43.389Z,22.10
2019-04-22T09:36:22.392Z,22.30
2019-04-22T09:38:47.299Z,22.40
2019-04-22T09:41:24.919Z,22.40
2019-04-22T09:43:53.629Z,22.60
2019-04-22T09:46:23.966Z,22.60
2019-04-22T09:48:51.890Z,22.70
2019-04-22T09:51:18.621Z,22.60
2019-04-22T09:53:54.870Z,22.70
2019-04-22T09:56:29.861Z,22.90
2019-04-22T09:58:58.553Z,22.90
2019-04-22T10:04:00.828Z,23.00
2019-04-22T10:06:29.450Z,23.10
2019-04-22T10:09:20.970Z,23.10
2019-04-22T10:16:31.349Z,23.30
2019-04-22T10:18:59.109Z,23.20
2019-04-22T10:21:37.256Z,23.20
2019-04-22T10:23:59.610Z,23.30
2019-04-22T10:26:33.442Z,23.20
2019-04-22T10:33:49.732Z,23.00
2019-04-22T10:36:07.895Z,23.10
2019-04-22T10:38:36.785Z,23.30
2019-04-22T10:41:05.469Z,23.10
2019-04-22T10:43:34.958Z,23.10
2019-04-22T10:46:04.090Z,23.10
2019-04-22T10:48:36.587Z,23.20
2019-04-22T10:51:04.678Z,23.10
2019-04-22T10:53:33.473Z,23.10
2019-04-22T10:56:03.218Z,23.30
2019-04-22T10:58:34.828Z,23.40
2019-04-22T11:01:03.584Z,23.20
2019-04-22T11:03:33.170Z,23.20
2019-04-22T11:06:03.283Z,23.30
2019-04-22T11:08:40.701Z,23.50
2019-04-22T11:11:18.044Z,23.40
2019-04-22T11:13:33.781Z,23.20
2019-04-22T11:16:03.486Z,23.20
2019-04-22T11:18:33.642Z,23.20
2019-04-22T11:21:02.397Z,23.30
2019-04-22T11:23:32.363Z,23.10
2019-04-22T11:26:01.789Z,23.20
2019-04-22T11:28:31.838Z,23.40
2019-04-22T11:31:00.835Z,23.60
2019-04-22T11:33:30.343Z,23.60
2019-04-22T11:35:59.963Z,23.70
2019-04-22T11:38:28.882Z,23.50
2019-04-22T11:41:01.127Z,23.50
2019-04-22T11:43:28.493Z,23.60
2019-04-22T11:45:57.536Z,23.70
2019-04-22T11:48:27.038Z,23.80
2019-04-22T11:50:55.810Z,23.70
2019-04-22T11:53:24.856Z,23.70
2019-04-22T11:55:54.885Z,23.60
2019-04-22T11:58:24.631Z,23.30
2019-04-22T12:00:55.149Z,23.20
2019-04-22T12:03:25.139Z,23.30
2019-04-22T12:05:55.452Z,23.30
2019-04-22T12:08:25.015Z,23.20
2019-04-22T12:11:00.309Z,23.10
2019-04-22T12:13:26.198Z,23.00
2019-04-22T12:15:55.452Z,23.00
2019-04-22T12:18:24.934Z,23.10
2019-04-22T12:20:55.099Z,23.30
2019-04-22T12:23:25.202Z,23.20
2019-04-22T12:26:01.257Z,23.10
2019-04-22T12:28:27.118Z,23.10
2019-04-22T12:30:55.778Z,23.20
2019-04-22T12:33:25.270Z,23.30
2019-04-22T12:35:54.752Z,23.20
2019-04-22T12:38:24.077Z,23.10
2019-04-22T12:40:58.459Z,23.10
2019-04-22T12:43:25.689Z,23.10
2019-04-22T12:45:54.314Z,23.00
2019-04-22T12:48:23.280Z,23.00
2019-04-22T12:50:54.240Z,23.10
2019-04-22T12:53:25.737Z,22.90
2019-04-22T12:55:55.234Z,23.00
2019-04-22T12:58:23.440Z,22.90
2019-04-22T13:00:52.839Z,22.90
2019-04-22T13:03:22.300Z,22.90
2019-04-22T13:05:51.462Z,22.90
2019-04-22T13:08:20.175Z,22.90
2019-04-22T13:10:55.556Z,22.80
2019-04-22T13:13:19.024Z,22.90
2019-04-22T13:15:48.928Z,22.90
2019-04-22T13:18:27.663Z,22.70
2019-04-22T13:20:48.637Z,22.60
2019-04-22T13:23:18.020Z,22.70
2019-04-22T13:25:47.237Z,22.70
2019-04-22T13:28:15.880Z,22.70
2019-04-22T13:30:44.519Z,22.80
2019-04-22T13:33:14.680Z,22.80
2019-04-22T13:35:45.722Z,22.80
2019-04-22T13:38:15.226Z,22.80
2019-04-22T13:40:57.903Z,22.70
2019-04-22T13:43:14.444Z,22.70
2019-04-22T13:45:43.700Z,22.70
2019-04-22T13:48:31.156Z,22.70
2019-04-22T13:51:18.622Z,22.60
2019-04-22T13:56:08.767Z,22.70
2019-04-22T13:58:31.307Z,22.70
2019-04-22T14:00:46.825Z,22.80
2019-04-22T14:03:35.652Z,22.70
2019-04-22T14:06:05.185Z,22.60
2019-04-22T14:08:35.268Z,22.50
2019-04-22T14:11:18.038Z,22.60
2019-04-22T14:13:34.259Z,22.60
2019-04-22T14:16:06.709Z,22.70
2019-04-22T14:18:36.935Z,22.70
2019-04-22T14:21:06.863Z,22.50
2019-04-22T14:23:35.536Z,22.50
2019-04-22T14:26:05.224Z,22.50
2019-04-22T14:28:35.443Z,22.50
2019-04-22T14:31:04.404Z,22.70
2019-04-22T14:33:34.161Z,22.70
2019-04-22T14:36:05.725Z,22.70
2019-04-22T14:38:34.725Z,22.70
2019-04-22T14:41:03.732Z,22.70
2019-04-22T14:43:59.975Z,22.70
2019-04-22T14:46:32.031Z,22.70
2019-04-22T14:48:57.653Z,22.70
2019-04-22T14:51:20.937Z,22.70
2019-04-22T14:53:52.593Z,22.80
2019-04-22T14:56:04.360Z,22.80
2019-04-22T14:58:33.097Z,22.60
2019-04-22T15:01:03.215Z,22.50
2019-04-22T15:03:33.129Z,22.40
2019-04-22T15:06:02.247Z,22.40
2019-04-22T15:08:31.216Z,22.30
2019-04-22T15:11:00.158Z,22.30
2019-04-22T15:13:29.441Z,22.30
2019-04-22T15:16:03.039Z,22.30
2019-04-22T15:18:36.089Z,22.40
2019-04-22T15:21:06.910Z,22.50
2019-04-22T15:23:35.742Z,22.50
2019-04-22T15:26:04.649Z,22.40
2019-04-22T15:28:33.452Z,22.40
2019-04-22T15:31:03.471Z,22.40
2019-04-22T15:33:33.093Z,22.40
2019-04-22T15:36:01.800Z,22.40
2019-04-22T15:38:30.386Z,22.30
2019-04-22T15:40:58.955Z,22.30
2019-04-22T15:43:30.890Z,22.30
2019-04-22T15:46:00.471Z,22.30
2019-04-22T15:48:29.209Z,22.20
2019-04-22T15:50:58.450Z,22.20
2019-04-22T15:53:27.565Z,22.10
2019-04-22T15:55:58.787Z,22.20
2019-04-22T15:58:28.043Z,22.10
2019-04-22T16:01:10.747Z,22.20
2019-04-22T16:03:32.275Z,22.30
2019-04-22T16:06:02.138Z,22.30
2019-04-22T16:08:34.228Z,22.20
2019-04-22T16:11:04.138Z,22.20
2019-04-22T16:13:36.126Z,22.10
2019-04-22T16:16:02.981Z,22.10
2019-04-22T16:18:32.576Z,22.00
2019-04-22T16:21:02.760Z,21.90
2019-04-22T16:23:34.104Z,21.80
2019-04-22T16:26:07.600Z,21.80
2019-04-22T16:28:37.640Z,21.70
2019-04-22T16:31:07.375Z,21.70
2019-04-22T16:33:39.730Z,21.60
2019-04-22T16:36:07.238Z,21.50
2019-04-22T16:38:36.913Z,21.40
2019-04-22T16:41:06.586Z,21.30
2019-04-22T16:43:36.497Z,21.30
2019-04-22T16:46:05.827Z,21.20
2019-04-22T16:48:35.678Z,21.20
2019-04-22T16:51:04.582Z,21.10
2019-04-22T16:53:34.905Z,21.10
2019-04-22T16:56:04.807Z,21.00
2019-04-22T16:58:34.719Z,21.00
2019-04-22T17:01:05.122Z,20.90
2019-04-22T17:03:52.393Z,20.80
2019-04-22T17:06:23.442Z,20.70
2019-04-22T17:08:52.904Z,20.60
2019-04-22T17:11:25.473Z,20.50
2019-04-22T17:13:55.194Z,20.40
2019-04-22T17:16:26.237Z,20.30
2019-04-22T17:18:56.437Z,20.20
2019-04-22T17:21:25.856Z,20.20
2019-04-22T17:23:55.971Z,20.10
2019-04-22T17:26:24.561Z,20.00
2019-04-22T17:28:53.463Z,20.00
2019-04-22T17:31:24.817Z,20.00
2019-04-22T17:33:54.938Z,19.90
2019-04-22T17:36:24.309Z,19.90
2019-04-22T17:39:00.519Z,19.90
2019-04-22T17:41:40.513Z,19.80
2019-04-22T17:44:19.140Z,19.80
2019-04-22T17:46:41.790Z,19.70
2019-04-22T17:49:34.039Z,19.70
2019-04-22T17:52:16.842Z,19.50
2019-04-22T17:54:48.197Z,19.50
2019-04-22T17:57:24.116Z,19.40
2019-04-22T17:59:56.805Z,19.30
2019-04-22T18:02:22.544Z,19.30
2019-04-22T18:04:40.347Z,19.20
2019-04-22T18:07:31.494Z,19.10
2019-04-22T18:15:14.657Z,18.90
2019-04-22T18:17:30.509Z,18.80
2019-04-22T18:19:53.124Z,18.80
2019-04-22T18:22:21.751Z,18.80
2019-04-22T18:24:53.086Z,18.70
2019-04-22T18:29:55.862Z,18.50
2019-04-22T18:32:20.287Z,18.50
2019-04-22T18:34:53.220Z,18.40
2019-04-22T18:37:25.185Z,18.30
2019-04-22T18:40:01.906Z,18.20
2019-04-22T18:42:26.811Z,18.00
2019-04-22T18:45:12.653Z,18.00
2019-04-22T18:47:29.458Z,17.90
2019-04-22T18:49:59.259Z,17.90
2019-04-22T18:52:40.205Z,17.90
2019-04-22T18:55:14.706Z,17.90
2019-04-22T18:58:02.607Z,17.80
2019-04-22T19:00:23.454Z,17.80
2019-04-22T19:02:59.367Z,17.70
2019-04-22T19:05:42.663Z,17.60
2019-04-22T19:15:54.281Z,17.30
2019-04-22T19:18:24.204Z,17.20
2019-04-22T19:20:59.431Z,17.10
2019-04-22T19:23:22.687Z,17.10
2019-04-22T19:25:48.639Z,17.10
2019-04-22T19:28:29.202Z,17.00
2019-04-22T19:31:01.590Z,16.90
2019-04-22T19:33:25.052Z,16.90
2019-04-22T19:35:52.003Z,16.90
2019-04-22T19:38:15.664Z,16.80
2019-04-22T19:41:06.870Z,16.80
2019-04-22T19:43:28.653Z,16.80
2019-04-22T19:45:55.403Z,16.70
2019-04-22T19:48:32.940Z,16.60
2019-04-22T19:51:05.840Z,16.60
2019-04-22T19:53:29.707Z,16.60
2019-04-22T19:55:53.799Z,16.50
2019-04-22T19:58:27.764Z,16.40
2019-04-22T20:01:13.463Z,16.40
2019-04-22T20:03:50.843Z,16.30
2019-04-22T20:06:16.554Z,16.30
2019-04-22T20:08:51.005Z,16.20
2019-04-22T20:11:23.193Z,16.10
2019-04-22T20:13:47.997Z,16.10
2019-04-22T20:16:11.513Z,16.20
2019-04-22T20:18:52.009Z,16.10
2019-04-22T20:21:27.011Z,16.10
2019-04-22T20:23:42.056Z,16.00
2019-04-22T20:26:16.192Z,16.00
2019-04-22T20:28:52.716Z,15.90
2019-04-22T20:31:24.605Z,15.90
2019-04-22T20:33:56.085Z,15.80
2019-04-22T20:36:47.550Z,15.70
2019-04-22T20:38:51.096Z,15.70
2019-04-22T20:41:22.802Z,15.60
2019-04-22T20:43:56.553Z,15.60
2019-04-22T20:46:28.433Z,15.60
2019-04-22T20:49:04.975Z,15.60
2019-04-22T20:51:38.503Z,15.50
2019-04-22T20:54:02.137Z,15.50
2019-04-22T20:56:26.729Z,15.40
2019-04-22T20:58:56.079Z,15.40
2019-04-22T21:01:28.372Z,15.30
2019-04-22T21:03:46.928Z,15.30
2019-04-22T21:06:29.366Z,15.30
2019-04-22T21:09:02.233Z,15.30
2019-04-22T21:11:30.138Z,15.20
2019-04-22T21:13:56.100Z,15.20
2019-04-22T21:16:34.655Z,15.10
2019-04-22T21:18:52.250Z,15.00
2019-04-22T21:21:32.164Z,15.00
2019-04-22T21:23:54.445Z,15.00
2019-04-22T21:26:29.089Z,14.90
2019-04-22T21:29:01.201Z,14.90
2019-04-22T21:31:33.296Z,14.80
2019-04-22T21:33:59.454Z,14.80
2019-04-22T21:36:36.625Z,14.70
2019-04-22T21:39:00.826Z,14.70
2019-04-22T21:41:34.097Z,14.60
2019-04-22T21:44:05.569Z,14.60
2019-04-22T21:46:35.328Z,14.50
2019-04-22T21:49:07.457Z,14.50
2019-04-22T21:51:39.989Z,14.50
2019-04-22T21:54:12.242Z,14.50
2019-04-22T21:57:07.508Z,14.50
2019-04-22T21:59:26.883Z,14.50
2019-04-22T22:02:04.510Z,14.40
2019-04-22T22:04:32.149Z,14.40
2019-04-22T22:06:53.070Z,14.30
2019-04-22T22:09:39.142Z,14.20
2019-04-22T22:11:59.360Z,14.10
2019-04-22T22:14:42.555Z,14.10
2019-04-22T22:17:01.330Z,14.10
2019-04-22T22:19:37.757Z,14.10
2019-04-22T22:22:28.063Z,14.10
2019-04-22T22:24:48.296Z,14.10
2019-04-22T22:27:14.642Z,14.00
2019-04-22T22:30:05.500Z,14.00
2019-04-22T22:32:22.008Z,14.00
2019-04-22T22:34:46.492Z,14.00
2019-04-22T22:37:10.788Z,13.90
2019-04-22T22:39:40.457Z,13.90
2019-04-22T22:41:59.574Z,13.90
2019-04-22T22:44:38.020Z,13.80
2019-04-22T22:47:18.230Z,13.70
2019-04-22T22:49:52.857Z,13.60
2019-04-22T22:52:44.856Z,13.60
2019-04-22T22:54:54.099Z,13.50
2019-04-22T22:57:29.308Z,13.50
2019-04-22T22:59:50.054Z,13.50
2019-04-22T23:02:22.344Z,13.50
2019-04-22T23:04:51.162Z,13.50
2019-04-22T23:07:31.727Z,13.50
2019-04-22T23:09:58.613Z,13.50
2019-04-22T23:12:34.741Z,13.40
2019-04-22T23:14:57.626Z,13.40
2019-04-22T23:17:11.761Z,13.40
2019-04-22T23:19:41.970Z,13.40
2019-04-22T23:22:20.603Z,13.30
2019-04-22T23:25:00.238Z,13.20
2019-04-22T23:27:34.636Z,13.20
2019-04-22T23:30:02.449Z,13.20
2019-04-22T23:32:32.990Z,13.20
2019-04-22T23:35:14.709Z,13.10
2019-04-22T23:37:44.689Z,13.10
2019-04-22T23:40:24.330Z,13.10
2019-04-22T23:42:53.839Z,13.00
2019-04-22T23:45:25.081Z,13.00
2019-04-22T23:47:41.189Z,13.00
2019-04-22T23:50:19.687Z,12.90
2019-04-22T23:52:54.623Z,12.90
2019-04-22T23:55:27.044Z,12.80
2019-04-22T23:58:19.126Z,12.80
